Time;durP1;ratioP1;P1;durP2;ratioP2;P2;SDS_P1;SDS_P2;PMS_P1;PMS_P2;Temp;Humidity;BMP_temperature;BMP_pressure;BME280_temperature;BME280_humidity;BME280_pressure;Samples;Min_cycle;Max_cycle;Signal;HPM_P1;HPM_P2
2021/10/04 00:01:30;;;;;;;2.35;1.85;;;23.20;57.00;;;;;;6290534;28;20033;-72
2021/10/04 00:04:30;;;;;;;2.22;1.63;;;23.20;57.00;;;;;;6314541;28;20028;-73
2021/10/04 00:07:31;;;;;;;2.63;1.95;;;23.20;57.00;;;;;;6307967;28;20082;-73
2021/10/04 00:10:31;;;;;;;2.38;1.80;;;23.20;57.00;;;;;;6290507;28;20484;-72
2021/10/04 00:13:32;;;;;;;2.30;1.88;;;23.20;57.00;;;;;;6304894;28;20032;-73
2021/10/04 00:16:32;;;;;;;2.42;1.95;;;23.20;57.00;;;;;;6299157;28;20125;-73
2021/10/04 00:19:33;;;;;;;2.33;1.80;;;23.20;57.00;;;;;;6291938;28;20028;-73
2021/10/04 00:22:34;;;;;;;1.90;1.70;;;23.20;57.00;;;;;;6295743;28;20032;-72
2021/10/04 00:25:35;;;;;;;1.92;1.63;;;23.20;57.00;;;;;;6306807;28;20070;-73
2021/10/04 00:28:35;;;;;;;2.15;1.95;;;23.20;57.00;;;;;;6312004;28;20047;-73
2021/10/04 00:31:36;;;;;;;2.25;1.42;;;23.20;57.00;;;;;;6309670;28;20032;-73
2021/10/04 00:34:36;;;;;;;2.30;1.60;;;23.20;57.00;;;;;;6290694;28;20044;-73
2021/10/04 00:37:38;;;;;;;3.05;2.20;;;23.20;57.00;;;;;;6302809;28;20445;-73
2021/10/04 00:40:38;;;;;;;2.40;1.83;;;23.20;57.00;;;;;;6314753;28;20113;-72
2021/10/04 00:43:39;;;;;;;1.90;1.65;;;23.20;57.00;;;;;;6294444;28;20029;-73
2021/10/04 00:46:39;;;;;;;1.95;1.75;;;23.20;57.00;;;;;;6292644;28;20029;-73
2021/10/04 00:49:40;;;;;;;1.83;1.50;;;23.20;57.00;;;;;;6314768;28;20028;-72
2021/10/04 00:52:40;;;;;;;1.55;1.42;;;23.20;57.00;;;;;;6307924;28;20294;-73
2021/10/04 00:55:41;;;;;;;2.10;1.70;;;23.20;57.00;;;;;;6315191;28;20518;-73
2021/10/04 00:58:42;;;;;;;1.80;1.50;;;23.20;57.00;;;;;;6296216;28;20107;-72
2021/10/04 01:01:43;;;;;;;2.00;1.80;;;23.20;57.00;;;;;;6293479;28;20032;-73
2021/10/04 01:04:44;;;;;;;1.88;1.65;;;23.20;57.00;;;;;;6314684;28;20028;-73
2021/10/04 01:07:46;;;;;;;1.85;1.60;;;23.20;57.00;;;;;;6307136;28;20446;-72
2021/10/04 01:10:47;;;;;;;2.10;1.80;;;23.20;57.00;;;;;;6287952;28;20054;-73
2021/10/04 01:13:48;;;;;;;2.03;1.80;;;23.20;57.00;;;;;;6303337;28;20032;-73
2021/10/04 01:16:50;;;;;;;2.00;1.63;;;23.20;57.00;;;;;;6292745;28;20036;-73
2021/10/04 01:19:50;;;;;;;1.92;1.63;;;23.20;57.00;;;;;;6317029;28;20111;-73
2021/10/04 01:22:52;;;;;;;2.03;1.70;;;23.20;57.00;;;;;;6312928;28;20399;-74
2021/10/04 01:25:52;;;;;;;1.85;1.55;;;23.20;57.00;;;;;;6304519;28;20526;-74
2021/10/04 01:28:53;;;;;;;2.13;1.70;;;23.20;57.00;;;;;;6318595;28;20028;-72
2021/10/04 01:31:54;;;;;;;1.75;1.40;;;23.20;57.00;;;;;;6312165;28;20561;-73
2021/10/04 01:34:58;;;;;;;1.98;1.52;;;23.20;57.00;;;;;;6303200;28;20039;-73
2021/10/04 01:37:58;;;;;;;1.95;1.70;;;23.20;57.70;;;;;;6303643;28;20029;-73
2021/10/04 01:40:59;;;;;;;1.98;1.60;;;23.20;57.00;;;;;;6293475;28;20020;-73
2021/10/04 01:43:59;;;;;;;1.77;1.40;;;23.20;57.00;;;;;;6316661;28;20035;-73
2021/10/04 01:47:00;;;;;;;1.88;1.67;;;23.20;57.00;;;;;;6312326;28;20101;-74
2021/10/04 01:50:00;;;;;;;2.05;1.38;;;23.20;57.00;;;;;;6293303;28;20025;-74
2021/10/04 01:53:01;;;;;;;1.65;1.52;;;23.20;57.00;;;;;;6306802;28;20103;-73
2021/10/04 01:56:02;;;;;;;1.45;1.30;;;23.20;57.10;;;;;;6318297;28;20040;-73
2021/10/04 01:59:03;;;;;;;1.50;1.40;;;23.20;57.10;;;;;;6296858;28;20113;-73
2021/10/04 02:02:05;;;;;;;1.83;1.60;;;23.20;57.10;;;;;;6297183;28;20165;-73
2021/10/04 02:05:07;;;;;;;1.67;1.40;;;23.20;57.10;;;;;;6318755;28;20078;-73
2021/10/04 02:08:07;;;;;;;1.42;1.30;;;23.20;57.10;;;;;;6304891;28;20105;-73
2021/10/04 02:11:08;;;;;;;2.20;1.63;;;23.20;57.10;;;;;;6292470;28;20052;-73
2021/10/04 02:14:08;;;;;;;1.80;1.50;;;23.20;57.10;;;;;;6308521;28;20127;-73
2021/10/04 02:17:09;;;;;;;2.17;1.40;;;23.20;57.10;;;;;;6303633;28;20039;-73
2021/10/04 02:20:13;;;;;;;1.38;1.25;;;23.20;57.10;;;;;;6292525;28;20028;-73
2021/10/04 02:23:15;;;;;;;1.52;1.33;;;23.20;57.10;;;;;;6303597;28;20020;-73
2021/10/04 02:26:15;;;;;;;1.65;1.55;;;23.20;57.10;;;;;;6305752;28;20040;-73
2021/10/04 02:29:16;;;;;;;1.50;1.40;;;23.20;57.10;;;;;;6317710;28;20028;-73
2021/10/04 02:32:17;;;;;;;1.95;1.42;;;23.20;57.10;;;;;;6306561;28;20024;-73
2021/10/04 02:35:18;;;;;;;1.40;1.30;;;23.20;57.10;;;;;;6292364;28;20036;-73
2021/10/04 02:38:18;;;;;;;1.90;1.40;;;23.20;57.10;;;;;;6310446;28;20040;-73
2021/10/04 02:41:19;;;;;;;1.63;1.30;;;23.20;57.10;;;;;;6315826;28;20024;-72
2021/10/04 02:44:20;;;;;;;1.65;1.35;;;23.20;57.10;;;;;;6291894;28;20028;-73
2021/10/04 02:47:20;;;;;;;1.60;1.48;;;23.20;57.10;;;;;;6300561;28;20031;-73
2021/10/04 02:50:23;;;;;;;1.55;1.30;;;23.20;57.00;;;;;;6315697;28;20112;-74
2021/10/04 02:53:23;;;;;;;1.80;1.52;;;23.20;57.10;;;;;;6309358;28;20016;-73
2021/10/04 02:56:24;;;;;;;2.35;1.65;;;23.20;57.10;;;;;;6317600;28;20383;-73
2021/10/04 02:59:24;;;;;;;3.20;1.75;;;23.20;57.10;;;;;;6291539;28;20065;-73
2021/10/04 03:02:26;;;;;;;1.40;1.30;;;23.20;57.10;;;;;;6298633;28;20116;-73
2021/10/04 03:05:26;;;;;;;1.45;1.25;;;23.20;57.10;;;;;;6316482;28;20040;-72
2021/10/04 03:08:27;;;;;;;1.45;1.17;;;23.20;57.10;;;;;;6302411;28;20051;-72
2021/10/04 03:11:27;;;;;;;1.73;1.50;;;23.20;57.00;;;;;;6291295;28;20032;-73
2021/10/04 03:14:28;;;;;;;1.40;1.30;;;23.20;57.00;;;;;;6305523;28;20139;-72
2021/10/04 03:17:29;;;;;;;1.40;1.15;;;23.20;57.10;;;;;;6294933;28;20028;-72
2021/10/04 03:20:29;;;;;;;1.42;1.30;;;23.20;57.10;;;;;;6316016;28;20038;-73
2021/10/04 03:23:30;;;;;;;1.30;1.17;;;23.20;57.10;;;;;;6314002;28;20089;-73
2021/10/04 03:26:30;;;;;;;1.48;1.27;;;23.20;57.10;;;;;;6304644;28;20119;-73
2021/10/04 03:29:31;;;;;;;1.30;1.10;;;23.20;57.10;;;;;;6316068;28;20043;-72
2021/10/04 03:32:31;;;;;;;1.20;1.10;;;23.20;57.10;;;;;;6302384;28;20032;-73
2021/10/04 03:35:33;;;;;;;1.30;1.17;;;23.20;57.10;;;;;;6305323;28;20128;-72
2021/10/04 03:38:33;;;;;;;1.60;1.20;;;23.20;57.10;;;;;;6294391;28;20033;-73
2021/10/04 03:41:34;;;;;;;1.20;1.08;;;23.20;57.00;;;;;;6293523;28;20399;-72
2021/10/04 03:44:35;;;;;;;1.17;1.08;;;23.20;57.10;;;;;;6316116;28;20024;-73
2021/10/04 03:47:36;;;;;;;1.10;0.98;;;23.20;57.10;;;;;;6305000;28;20044;-73
2021/10/04 03:50:36;;;;;;;1.67;1.17;;;23.20;57.10;;;;;;6290626;28;20025;-73
2021/10/04 03:53:37;;;;;;;1.35;1.20;;;23.20;57.10;;;;;;6309682;28;20024;-72
2021/10/04 03:56:37;;;;;;;1.25;1.02;;;23.10;57.00;;;;;;6313917;28;20028;-71
2021/10/04 04:03:34;;;;;;;1.40;1.20;;;23.20;57.10;;;;;;6307449;28;20032;-71
2021/10/04 04:06:35;;;;;;;1.33;1.17;;;23.20;57.10;;;;;;6315721;28;20039;-71
2021/10/04 04:09:36;;;;;;;1.30;1.20;;;23.10;57.00;;;;;;6339279;28;20444;-71
2021/10/04 04:12:38;;;;;;;1.10;1.00;;;23.10;57.00;;;;;;6318692;28;20032;-71
2021/10/04 04:15:39;;;;;;;1.40;1.13;;;23.10;57.00;;;;;;6299237;28;20045;-71
2021/10/04 04:18:39;;;;;;;1.58;1.10;;;23.20;57.20;;;;;;6302523;28;20078;-71
2021/10/04 04:21:42;;;;;;;0.82;0.82;;;23.20;57.20;;;;;;6290151;28;20037;-71
2021/10/04 04:24:43;;;;;;;1.10;1.00;;;23.20;57.20;;;;;;6309530;28;20539;-71
2021/10/04 04:27:44;;;;;;;1.27;1.17;;;23.20;57.20;;;;;;6304991;28;20393;-71
2021/10/04 04:30:45;;;;;;;1.10;1.00;;;23.20;57.20;;;;;;6315369;28;20479;-71
2021/10/04 04:33:45;;;;;;;2.58;0.90;;;23.20;57.20;;;;;;6291741;28;20036;-72
2021/10/04 04:36:46;;;;;;;0.90;0.80;;;23.20;57.20;;;;;;6294105;28;20484;-71
2021/10/04 04:39:46;;;;;;;1.08;0.98;;;23.10;57.10;;;;;;6315638;28;20546;-71
2021/10/04 04:42:47;;;;;;;0.88;0.77;;;23.10;57.10;;;;;;6301720;28;20332;-71
2021/10/04 04:45:48;;;;;;;1.05;0.95;;;23.20;57.20;;;;;;6289623;28;20403;-71
2021/10/04 04:48:48;;;;;;;0.80;0.80;;;23.20;57.30;;;;;;6311017;28;20026;-71
2021/10/04 04:51:49;;;;;;;1.08;0.98;;;23.20;57.30;;;;;;6315904;28;20147;-71
2021/10/04 04:54:49;;;;;;;1.10;0.90;;;23.10;57.20;;;;;;6316523;28;20047;-71
2021/10/04 04:57:50;;;;;;;1.50;1.02;;;23.10;57.10;;;;;;6307523;28;20032;-71
2021/10/04 05:00:50;;;;;;;0.95;0.80;;;23.10;57.10;;;;;;6293860;28;20476;-71
2021/10/04 05:03:51;;;;;;;1.05;0.82;;;23.20;57.20;;;;;;6313491;28;20371;-70
2021/10/04 05:06:51;;;;;;;2.22;0.70;;;23.20;57.20;;;;;;6319047;28;20209;-71
2021/10/04 05:09:52;;;;;;;1.08;0.98;;;23.10;57.10;;;;;;6293926;28;20084;-71
2021/10/04 05:12:52;;;;;;;1.08;0.98;;;23.20;57.30;;;;;;6301690;28;20028;-71
2021/10/04 05:15:53;;;;;;;1.40;1.17;;;23.20;57.60;;;;;;6300091;28;20036;-71
2021/10/04 05:18:53;;;;;;;1.38;1.10;;;23.10;57.50;;;;;;6297260;28;20646;-71
2021/10/04 05:21:54;;;;;;;1.98;0.80;;;23.10;57.50;;;;;;6292969;28;20193;-71
2021/10/04 05:24:55;;;;;;;0.75;0.75;;;23.10;57.50;;;;;;6297035;28;20028;-71
2021/10/04 05:27:56;;;;;;;1.15;0.90;;;23.10;57.70;;;;;;6309141;28;20028;-71
2021/10/04 05:30:56;;;;;;;0.80;0.75;;;23.10;57.70;;;;;;6305523;28;20062;-71
2021/10/04 05:33:57;;;;;;;1.08;0.90;;;23.10;57.70;;;;;;6292157;28;20155;-72
2021/10/04 05:36:57;;;;;;;0.70;0.70;;;23.10;57.60;;;;;;6300855;28;20059;-71
2021/10/04 05:39:58;;;;;;;2.15;1.17;;;23.10;57.70;;;;;;6291968;28;20446;-71
2021/10/04 05:42:58;;;;;;;1.02;0.82;;;23.10;57.70;;;;;;6300354;28;20392;-71
2021/10/04 05:46:00;;;;;;;1.05;0.80;;;23.10;57.70;;;;;;6292346;28;20488;-71
2021/10/04 05:49:01;;;;;;;0.88;0.77;;;23.10;57.70;;;;;;6290325;28;20805;-71
2021/10/04 05:52:02;;;;;;;1.20;0.88;;;23.20;57.70;;;;;;6291980;28;20152;-71
2021/10/04 05:55:04;;;;;;;1.15;0.80;;;23.20;57.70;;;;;;6290947;28;20131;-71
2021/10/04 05:58:05;;;;;;;1.67;1.00;;;23.20;57.80;;;;;;6305568;28;20024;-72
2021/10/04 06:01:06;;;;;;;4.25;0.90;;;23.20;57.80;;;;;;6303003;28;20021;-71
2021/10/04 06:04:06;;;;;;;1.55;0.95;;;23.20;57.80;;;;;;6307463;28;20024;-71
2021/10/04 06:07:07;;;;;;;3.92;1.55;;;23.20;57.90;;;;;;6297909;28;20032;-71
2021/10/04 06:10:11;;;;;;;1.27;0.90;;;23.20;57.90;;;;;;6294866;28;20144;-71
2021/10/04 06:13:11;;;;;;;2.22;1.15;;;23.20;57.90;;;;;;6304154;28;20028;-71
2021/10/04 06:16:12;;;;;;;3.40;1.10;;;23.20;58.00;;;;;;6295682;28;20115;-71
2021/10/04 06:19:12;;;;;;;1.35;0.70;;;23.20;57.90;;;;;;6299089;28;20040;-71
2021/10/04 06:22:13;;;;;;;1.90;0.70;;;23.20;58.00;;;;;;6295546;28;20028;-71
2021/10/04 06:25:15;;;;;;;1.75;1.20;;;23.20;58.00;;;;;;6314084;28;20550;-71
2021/10/04 06:28:16;;;;;;;1.60;0.90;;;23.20;58.00;;;;;;6313210;28;20518;-71
2021/10/04 06:31:17;;;;;;;3.60;0.95;;;23.10;57.90;;;;;;6309974;28;20035;-71
2021/10/04 06:34:17;;;;;;;0.93;0.93;;;23.20;58.00;;;;;;6293239;28;20035;-71
2021/10/04 06:37:18;;;;;;;2.85;0.70;;;23.10;58.00;;;;;;6294237;28;20142;-71
2021/10/04 06:40:18;;;;;;;1.20;0.90;;;23.20;58.10;;;;;;6292712;28;20028;-71
2021/10/04 06:43:19;;;;;;;2.40;1.00;;;23.10;58.00;;;;;;6301889;28;20468;-71
2021/10/04 06:46:20;;;;;;;0.80;0.70;;;23.10;58.00;;;;;;6293391;28;20055;-72
2021/10/04 06:49:20;;;;;;;1.48;0.90;;;23.10;58.00;;;;;;6293501;28;20059;-71
2021/10/04 06:52:21;;;;;;;1.88;0.75;;;23.10;58.10;;;;;;6310720;28;20032;-71
2021/10/04 06:55:21;;;;;;;1.27;1.00;;;23.10;58.70;;;;;;6309360;28;20051;-70
2021/10/04 06:58:22;;;;;;;2.90;0.75;;;23.10;58.00;;;;;;6299116;28;20024;-71
2021/10/04 07:01:23;;;;;;;2.95;0.80;;;23.10;58.10;;;;;;6292000;28;20035;-71
2021/10/04 07:04:24;;;;;;;2.33;0.80;;;23.10;58.10;;;;;;6316825;28;20016;-71
2021/10/04 07:07:24;;;;;;;2.33;0.85;;;23.10;58.00;;;;;;6327228;28;20020;-71
2021/10/04 07:10:25;;;;;;;1.48;0.88;;;23.10;58.10;;;;;;6291821;28;20053;-71
2021/10/04 07:13:26;;;;;;;2.40;0.70;;;23.10;58.10;;;;;;6298665;28;20132;-71
2021/10/04 07:16:27;;;;;;;1.42;0.88;;;23.10;58.10;;;;;;6291584;28;20029;-71
2021/10/04 07:19:27;;;;;;;1.83;0.80;;;23.10;58.10;;;;;;6309881;28;20141;-71
2021/10/04 07:22:28;;;;;;;1.52;0.88;;;23.10;58.10;;;;;;6317383;28;20426;-71
2021/10/04 07:25:28;;;;;;;1.35;1.00;;;23.10;58.10;;;;;;6306683;28;20051;-71
2021/10/04 07:28:29;;;;;;;1.40;0.90;;;23.10;58.10;;;;;;6317305;28;20123;-71
2021/10/04 07:31:30;;;;;;;1.65;0.90;;;23.10;58.00;;;;;;6300332;28;20031;-71
2021/10/04 07:34:31;;;;;;;1.50;1.05;;;23.10;58.10;;;;;;6309109;28;20067;-71
2021/10/04 07:37:32;;;;;;;1.25;0.70;;;23.10;58.20;;;;;;6294509;28;20047;-71
2021/10/04 07:40:33;;;;;;;3.38;0.70;;;23.10;58.20;;;;;;6292219;28;20024;-71
2021/10/04 07:43:34;;;;;;;0.52;0.50;;;23.10;58.20;;;;;;6312924;28;20756;-71
2021/10/04 07:46:34;;;;;;;1.08;0.70;;;23.10;58.20;;;;;;6314091;28;20052;-71
2021/10/04 07:49:35;;;;;;;0.85;0.60;;;23.10;58.20;;;;;;6292793;28;20375;-71
2021/10/04 07:52:37;;;;;;;0.77;0.60;;;23.10;58.20;;;;;;6287607;28;20066;-71
2021/10/04 07:55:41;;;;;;;0.68;0.52;;;23.10;58.20;;;;;;6302887;28;20051;-71
2021/10/04 07:58:41;;;;;;;0.67;0.60;;;23.10;58.20;;;;;;6298598;28;20032;-71
2021/10/04 08:01:42;;;;;;;0.75;0.70;;;23.10;58.20;;;;;;6303231;28;20502;-71
2021/10/04 08:04:43;;;;;;;1.08;0.77;;;23.10;58.20;;;;;;6304054;28;20028;-71
2021/10/04 08:07:43;;;;;;;2.55;0.70;;;23.10;58.20;;;;;;6301485;28;20127;-71
2021/10/04 08:10:44;;;;;;;1.10;0.70;;;23.10;58.30;;;;;;6307179;28;20059;-71
2021/10/04 08:13:46;;;;;;;3.47;0.65;;;23.10;58.30;;;;;;6303552;28;20032;-71
2021/10/04 08:16:46;;;;;;;0.95;0.75;;;23.10;58.30;;;;;;6302065;28;20380;-71
2021/10/04 08:19:47;;;;;;;1.00;0.80;;;23.10;58.30;;;;;;6313228;28;20044;-72
2021/10/04 08:22:48;;;;;;;0.77;0.52;;;23.10;58.30;;;;;;6305893;28;20712;-72
2021/10/04 08:25:48;;;;;;;0.80;0.63;;;23.10;58.20;;;;;;6305724;28;20020;-71
2021/10/04 08:28:49;;;;;;;0.45;0.45;;;23.20;58.00;;;;;;6301913;28;20020;-71
2021/10/04 08:31:50;;;;;;;0.68;0.52;;;23.20;58.30;;;;;;6316365;28;20063;-71
2021/10/04 08:34:50;;;;;;;0.98;0.65;;;23.20;58.30;;;;;;6300126;28;20503;-71
2021/10/04 08:37:51;;;;;;;0.82;0.60;;;23.20;58.20;;;;;;6299296;28;20051;-71
2021/10/04 08:40:52;;;;;;;1.23;0.70;;;23.20;58.10;;;;;;6297782;28;20031;-71
2021/10/04 08:43:54;;;;;;;0.95;0.52;;;23.30;58.20;;;;;;6314219;28;20028;-71
2021/10/04 08:46:55;;;;;;;3.58;0.60;;;23.30;58.00;;;;;;6316212;28;20035;-71
2021/10/04 08:49:55;;;;;;;1.67;0.60;;;23.30;57.90;;;;;;6300834;28;20217;-74
2021/10/04 08:52:57;;;;;;;1.17;0.32;;;23.30;57.80;;;;;;6303415;28;20025;-72
2021/10/04 08:55:57;;;;;;;0.60;0.60;;;23.40;57.80;;;;;;6300849;28;20032;-71
2021/10/04 08:58:58;;;;;;;3.92;0.73;;;23.40;57.80;;;;;;6319120;28;20069;-72
2021/10/04 09:02:25;;;;;;;1.20;0.60;;;23.40;57.80;;;;;;6318792;28;20107;-71
2021/10/04 09:05:27;;;;;;;3.88;0.40;;;23.40;57.80;;;;;;6309306;28;20436;-71
2021/10/04 09:08:28;;;;;;;0.88;0.70;;;23.40;57.80;;;;;;6308337;28;20401;-71
2021/10/04 09:11:36;;;;;;;4.35;0.57;;;23.40;57.80;;;;;;6296381;28;20344;-71
2021/10/04 09:14:36;;;;;;;2.92;0.40;;;23.40;57.80;;;;;;6307113;28;20106;-71
2021/10/04 09:17:40;;;;;;;0.98;0.50;;;23.40;58.20;;;;;;6302160;28;20032;-72
2021/10/04 09:21:10;;;;;;;1.75;0.60;;;23.40;57.90;;;;;;6322374;28;20037;-71
2021/10/04 09:24:11;;;;;;;0.95;0.70;;;23.40;57.90;;;;;;6312676;28;20115;-72
2021/10/04 09:27:42;;;;;;;1.65;0.68;;;23.40;57.90;;;;;;6311031;28;20017;-71
2021/10/04 09:30:45;;;;;;;2.40;0.40;;;23.40;58.00;;;;;;6307641;28;20078;-72
2021/10/04 09:33:58;;;;;;;0.55;0.50;;;23.40;58.00;;;;;;6319954;28;20016;-71
2021/10/04 09:36:59;;;;;;;1.48;0.63;;;23.40;58.00;;;;;;6319022;28;20292;-72
2021/10/04 09:40:01;;;;;;;1.70;0.43;;;23.40;58.00;;;;;;6313839;28;20021;-72
2021/10/04 09:43:06;;;;;;;1.85;0.82;;;23.40;58.10;;;;;;6298692;28;20063;-71
2021/10/04 09:46:08;;;;;;;;;;;23.40;58.10;;;;;;6298858;28;20036;-71
2021/10/04 09:49:08;;;;;;;0.40;0.40;;;23.40;58.00;;;;;;6319852;28;19981;-71
2021/10/04 09:52:09;;;;;;;0.73;0.60;;;23.40;58.10;;;;;;6314364;28;20025;-72
2021/10/04 09:55:23;;;;;;;3.78;0.50;;;23.40;58.10;;;;;;6314990;28;20376;-71
2021/10/04 09:58:32;;;;;;;0.45;0.40;;;23.40;58.10;;;;;;6309206;28;20040;-71
2021/10/04 10:01:34;;;;;;;4.03;0.68;;;23.40;58.10;;;;;;6296544;28;20037;-71
2021/10/04 10:04:35;;;;;;;0.43;0.40;;;23.40;58.10;;;;;;6296080;28;20025;-71
2021/10/04 10:07:36;;;;;;;0.85;0.65;;;23.40;58.00;;;;;;6318313;28;20027;-71
2021/10/04 10:10:39;;;;;;;0.55;0.50;;;23.40;58.10;;;;;;6295077;28;20060;-71
2021/10/04 10:13:40;;;;;;;0.63;0.45;;;23.40;58.00;;;;;;6304634;28;20472;-71
2021/10/04 10:16:41;;;;;;;0.55;0.40;;;23.40;58.10;;;;;;6295872;28;20021;-71
2021/10/04 10:19:44;;;;;;;1.98;0.70;;;23.40;58.00;;;;;;6317179;28;20028;-71
2021/10/04 10:22:55;;;;;;;1.75;0.40;;;23.40;58.00;;;;;;6302840;28;20105;-71
2021/10/04 10:25:55;;;;;;;0.40;0.40;;;23.40;58.00;;;;;;6315003;28;20039;-71
2021/10/04 10:29:17;;;;;;;0.82;0.45;;;23.40;57.90;;;;;;6293604;28;20486;-71
2021/10/04 10:32:20;;;;;;;0.45;0.38;;;23.40;57.90;;;;;;6305270;28;20465;-71
2021/10/04 10:35:47;;;;;;;0.63;0.50;;;23.40;58.40;;;;;;6307590;28;20058;-72
2021/10/04 10:39:02;;;;;;;0.50;0.45;;;23.30;57.90;;;;;;6297411;28;20539;-73
2021/10/04 10:42:11;;;;;;;2.60;0.30;;;23.40;58.00;;;;;;6308877;28;20029;-73
2021/10/04 10:45:14;;;;;;;2.25;0.80;;;23.40;58.00;;;;;;6295384;28;20106;-73
2021/10/04 10:48:17;;;;;;;0.80;0.60;;;23.40;58.30;;;;;;6298006;28;20020;-73
2021/10/04 10:51:18;;;;;;;3.03;0.50;;;23.40;58.20;;;;;;6295096;28;20086;-73
2021/10/04 10:54:38;;;;;;;4.18;0.40;;;23.40;58.20;;;;;;6295386;28;20037;-72
2021/10/04 10:58:00;;;;;;;1.75;0.43;;;23.40;58.10;;;;;;6308838;28;20376;-73
2021/10/04 11:01:06;;;;;;;0.32;0.20;;;23.40;58.10;;;;;;6294362;28;20021;-73
2021/10/04 11:04:06;;;;;;;0.60;0.40;;;23.40;58.10;;;;;;6315807;28;20089;-73
2021/10/04 11:07:07;;;;;;;1.67;0.30;;;23.40;58.10;;;;;;6326731;28;20078;-73
2021/10/04 11:10:10;;;;;;;2.22;0.40;;;23.40;58.10;;;;;;6294127;28;20052;-72
2021/10/04 11:13:10;;;;;;;0.45;0.35;;;23.40;58.10;;;;;;6305351;28;20021;-73
2021/10/04 11:16:10;;;;;;;1.00;0.40;;;23.40;58.10;;;;;;6305079;28;20070;-73
2021/10/04 11:19:22;;;;;;;0.40;0.30;;;23.40;58.10;;;;;;6301468;28;20035;-72
2021/10/04 11:22:23;;;;;;;2.05;0.30;;;23.40;58.00;;;;;;6295810;28;20397;-73
2021/10/04 11:25:24;;;;;;;1.58;0.50;;;23.50;58.00;;;;;;6304365;28;20016;-74
2021/10/04 11:28:33;;;;;;;1.52;0.30;;;23.50;58.10;;;;;;6299152;28;20440;-72
2021/10/04 11:31:36;;;;;;;0.85;0.47;;;23.50;57.60;;;;;;6314089;28;20513;-72
2021/10/04 11:34:36;;;;;;;0.77;0.50;;;23.50;57.10;;;;;;6318009;28;20040;-73
2021/10/04 11:37:37;;;;;;;0.68;0.50;;;23.40;56.70;;;;;;6312268;28;20494;-72
2021/10/04 11:40:37;;;;;;;1.13;0.45;;;23.40;57.60;;;;;;6294059;28;20078;-72
2021/10/04 11:43:43;;;;;;;0.85;0.50;;;23.40;57.50;;;;;;6314089;28;20020;-72
2021/10/04 11:46:47;;;;;;;1.17;0.45;;;23.40;57.40;;;;;;6301597;28;20386;-72
2021/10/04 11:49:50;;;;;;;2.90;0.40;;;23.40;57.30;;;;;;6315086;28;20078;-73
2021/10/04 11:52:53;;;;;;;0.90;0.47;;;23.40;57.30;;;;;;6300931;28;20028;-73
2021/10/04 11:56:02;;;;;;;2.10;0.68;;;23.40;57.30;;;;;;6294072;28;20385;-73
2021/10/04 11:59:02;;;;;;;5.32;0.70;;;23.40;57.30;;;;;;6315121;28;20495;-73
2021/10/04 12:02:20;;;;;;;1.00;0.50;;;23.40;57.30;;;;;;6314735;28;20028;-73
2021/10/04 12:05:31;;;;;;;1.55;0.40;;;23.40;57.30;;;;;;6294293;28;20095;-72
2021/10/04 12:08:37;;;;;;;0.77;0.55;;;23.40;57.20;;;;;;6309576;28;20027;-73
2021/10/04 12:12:05;;;;;;;2.25;0.60;;;23.40;57.20;;;;;;6304811;28;20047;-73
2021/10/04 12:15:06;;;;;;;0.95;0.55;;;23.40;57.20;;;;;;6306645;28;20033;-72
2021/10/04 12:18:16;;;;;;;0.95;0.57;;;23.40;57.20;;;;;;6302836;28;20024;-73
2021/10/04 12:21:20;;;;;;;0.73;0.50;;;23.40;57.20;;;;;;6318630;28;20020;-72
2021/10/04 12:24:22;;;;;;;0.98;0.60;;;23.40;57.20;;;;;;6300182;28;20058;-72
2021/10/04 12:27:23;;;;;;;0.38;0.32;;;23.40;57.20;;;;;;6305158;28;20029;-72
2021/10/04 12:30:24;;;;;;;0.63;0.40;;;23.40;57.30;;;;;;6294023;28;20027;-72
2021/10/04 12:33:47;;;;;;;0.88;0.50;;;23.40;57.20;;;;;;6313860;28;20024;-72
2021/10/04 12:36:48;;;;;;;0.40;0.30;;;23.40;57.30;;;;;;6295499;28;20032;-72
2021/10/04 12:39:48;;;;;;;0.73;0.40;;;23.40;57.30;;;;;;6293462;28;20108;-72
2021/10/04 12:42:50;;;;;;;1.08;0.55;;;23.40;57.30;;;;;;6307285;28;20024;-72
2021/10/04 12:46:01;;;;;;;1.15;0.50;;;23.40;57.20;;;;;;6293326;28;20031;-72
2021/10/04 12:49:17;;;;;;;0.85;0.60;;;23.40;57.30;;;;;;6316530;28;20028;-72
2021/10/04 12:52:29;;;;;;;0.82;0.40;;;23.40;57.30;;;;;;6300899;28;20028;-72
2021/10/04 12:55:42;;;;;;;1.08;0.70;;;23.40;57.30;;;;;;6287888;28;20040;-72
2021/10/04 12:58:58;;;;;;;0.70;0.60;;;23.40;57.30;;;;;;6314403;28;20119;-72
2021/10/04 13:02:01;;;;;;;0.70;0.50;;;23.40;57.20;;;;;;6301653;28;20032;-71
2021/10/04 13:05:06;;;;;;;1.02;0.50;;;23.40;57.30;;;;;;6311002;28;20024;-71
2021/10/04 13:08:07;;;;;;;1.67;0.57;;;23.40;57.20;;;;;;6315734;28;20107;-72
2021/10/04 13:11:08;;;;;;;0.70;0.50;;;23.40;57.30;;;;;;6294240;28;20045;-72
2021/10/04 13:14:08;;;;;;;1.38;0.50;;;23.40;57.20;;;;;;6301712;28;20495;-72
2021/10/04 13:17:09;;;;;;;1.52;0.65;;;23.40;57.30;;;;;;6295587;28;20021;-72
2021/10/04 13:20:10;;;;;;;1.02;0.60;;;23.40;57.20;;;;;;6308991;28;20109;-72
2021/10/04 13:23:11;;;;;;;1.17;0.60;;;23.40;58.00;;;;;;6296328;28;20031;-72
2021/10/04 13:26:14;;;;;;;2.33;0.80;;;23.40;57.30;;;;;;6306695;28;20028;-72
2021/10/04 13:29:16;;;;;;;1.58;0.68;;;23.40;57.30;;;;;;6295577;28;20051;-72
2021/10/04 13:32:16;;;;;;;0.60;0.55;;;23.40;57.30;;;;;;6309046;28;20206;-72
2021/10/04 13:35:17;;;;;;;2.03;0.80;;;23.40;57.30;;;;;;6295990;28;20067;-71
2021/10/04 13:38:17;;;;;;;1.52;0.50;;;23.40;57.30;;;;;;6297811;28;20032;-72
2021/10/04 13:41:18;;;;;;;1.52;0.50;;;23.40;57.30;;;;;;6308401;28;20367;-72
2021/10/04 13:44:19;;;;;;;2.85;0.77;;;23.40;57.30;;;;;;6296699;28;20063;-72
2021/10/04 13:47:19;;;;;;;0.68;0.60;;;23.40;57.30;;;;;;6308754;28;20059;-72
2021/10/04 13:50:21;;;;;;;1.10;0.70;;;23.40;57.30;;;;;;6299957;28;20024;-72
2021/10/04 13:53:22;;;;;;;0.50;0.50;;;23.40;57.30;;;;;;6313596;28;20024;-72
2021/10/04 13:56:22;;;;;;;1.75;0.63;;;23.40;57.30;;;;;;6304196;28;20128;-72
2021/10/04 13:59:23;;;;;;;1.15;0.65;;;23.40;57.40;;;;;;6320351;28;20024;-72
2021/10/04 14:02:23;;;;;;;0.80;0.47;;;23.40;57.40;;;;;;6310691;28;20380;-71
2021/10/04 14:05:24;;;;;;;0.57;0.43;;;23.40;57.40;;;;;;6294166;28;20066;-71
2021/10/04 14:08:25;;;;;;;1.17;0.65;;;23.40;57.40;;;;;;6310970;28;20483;-72
2021/10/04 14:11:25;;;;;;;1.70;0.80;;;23.40;57.50;;;;;;6294925;28;20207;-71
2021/10/04 14:14:26;;;;;;;1.40;0.60;;;23.50;57.40;;;;;;6313831;28;20127;-71
2021/10/04 14:17:27;;;;;;;3.55;0.55;;;23.50;57.40;;;;;;6315069;28;20039;-72
2021/10/04 14:20:27;;;;;;;1.42;0.75;;;23.40;57.20;;;;;;6309248;28;20387;-71
2021/10/04 14:23:28;;;;;;;2.10;0.70;;;23.40;57.10;;;;;;6299205;28;20064;-72
2021/10/04 14:26:30;;;;;;;2.63;0.70;;;23.40;56.80;;;;;;6309959;28;20095;-71
2021/10/04 14:29:30;;;;;;;1.63;0.80;;;23.40;57.70;;;;;;6313837;28;20025;-72
2021/10/04 14:32:31;;;;;;;1.95;0.88;;;23.40;57.00;;;;;;6308167;28;20119;-72
2021/10/04 14:35:32;;;;;;;5.10;1.10;;;23.40;56.90;;;;;;6305874;28;20055;-72
2021/10/04 14:38:32;;;;;;;3.20;1.05;;;23.40;56.90;;;;;;6312400;28;20031;-72
2021/10/04 14:41:34;;;;;;;3.65;0.90;;;23.40;56.90;;;;;;6293334;28;20418;-72
2021/10/04 14:44:35;;;;;;;2.78;0.85;;;23.40;56.90;;;;;;6294794;28;20031;-72
2021/10/04 14:47:36;;;;;;;4.38;0.90;;;23.40;56.90;;;;;;6295323;28;20394;-72
2021/10/04 14:50:36;;;;;;;2.85;1.08;;;23.40;56.90;;;;;;6298072;28;20029;-72
2021/10/04 14:53:37;;;;;;;1.75;0.93;;;23.40;56.80;;;;;;6308896;28;20024;-71
2021/10/04 14:56:38;;;;;;;3.58;0.98;;;23.40;56.90;;;;;;6298168;28;20672;-72
2021/10/04 14:59:38;;;;;;;2.83;1.10;;;23.40;56.90;;;;;;6306267;28;20506;-72
2021/10/04 15:02:40;;;;;;;2.22;0.90;;;23.40;56.90;;;;;;6309612;28;20433;-72
2021/10/04 15:05:40;;;;;;;3.00;0.80;;;23.40;56.90;;;;;;6310262;28;20431;-72
2021/10/04 15:08:41;;;;;;;3.90;1.15;;;23.40;56.90;;;;;;6325664;28;20034;-72
2021/10/04 15:11:42;;;;;;;4.15;0.70;;;23.40;57.00;;;;;;6293456;28;20016;-73
2021/10/04 15:14:42;;;;;;;3.78;1.10;;;23.40;57.00;;;;;;6300940;28;20048;-72
2021/10/04 15:17:43;;;;;;;3.50;1.02;;;23.40;57.00;;;;;;6295032;28;20043;-72
2021/10/04 15:20:44;;;;;;;2.05;0.85;;;23.40;57.00;;;;;;6299447;28;20021;-72
2021/10/04 15:23:45;;;;;;;7.00;1.30;;;23.40;57.00;;;;;;6303090;28;20027;-72
2021/10/04 15:26:46;;;;;;;3.22;1.20;;;23.40;56.70;;;;;;6305782;28;20055;-72
2021/10/04 15:29:46;;;;;;;3.05;1.40;;;23.40;56.40;;;;;;6293404;28;20028;-72
2021/10/04 15:32:47;;;;;;;5.97;1.70;;;23.40;56.10;;;;;;6294579;28;20036;-72
2021/10/04 15:35:48;;;;;;;6.40;1.58;;;23.40;55.80;;;;;;6292840;28;20241;-72
2021/10/04 15:38:50;;;;;;;5.47;1.80;;;23.30;55.50;;;;;;6298989;28;20033;-71
2021/10/04 15:41:52;;;;;;;3.25;1.60;;;23.40;56.10;;;;;;6298750;28;20024;-72
2021/10/04 15:44:52;;;;;;;9.00;1.67;;;23.50;56.00;;;;;;6299567;28;20028;-72
2021/10/04 15:47:53;;;;;;;3.60;1.58;;;23.50;56.30;;;;;;6305077;28;20072;-72
2021/10/04 15:50:53;;;;;;;6.38;1.60;;;23.60;56.40;;;;;;6304417;28;20480;-74
2021/10/04 15:53:54;;;;;;;4.03;1.60;;;23.70;56.60;;;;;;6299840;28;20097;-73